Time;durP1;ratioP1;P1;durP2;ratioP2;P2;SDS_P1;SDS_P2;PMS_P1;PMS_P2;Temp;Humidity;BMP_temperature;BMP_pressure;BME280_temperature;BME280_humidity;BME280_pressure;Samples;Min_cycle;Max_cycle;Signal;HPM_P1;HPM_P2
2023/07/28 00:01:10;;;;;;;;;3.00;1.50;;;;;20.48;75.55;100166.78;5136682;27;58641;-77
2023/07/28 00:03:36;;;;;;;;;3.00;3.00;;;;;20.53;75.64;100173.38;5136860;27;45340;-78
2023/07/28 00:06:01;;;;;;;;;3.00;1.67;;;;;20.50;75.72;100184.50;5138574;27;45391;-77
2023/07/28 00:08:26;;;;;;;;;2.67;2.67;;;;;20.50;75.82;100187.22;5140669;27;45311;-78
2023/07/28 00:10:52;;;;;;;;;1.67;1.67;;;;;20.51;75.48;100179.97;5141817;27;46044;-78
2023/07/28 00:13:17;;;;;;;;;0.75;0.75;;;;;20.50;75.27;100176.41;5121181;27;45225;-77
2023/07/28 00:15:42;;;;;;;;;1.00;1.00;;;;;20.49;75.27;100190.06;5122793;27;45429;-76
2023/07/28 00:18:08;;;;;;;;;4.67;2.33;;;;;20.48;75.37;100188.38;5129811;27;45530;-75
2023/07/28 00:20:33;;;;;;;;;3.00;3.00;;;;;20.49;75.47;100177.41;5120282;27;45336;-77
2023/07/28 00:22:58;;;;;;;;;2.67;1.67;;;;;20.50;75.25;100176.41;5119461;27;45313;-75
2023/07/28 00:25:24;;;;;;;;;1.00;1.00;;;;;20.49;75.29;100172.03;5121018;27;45189;-77
2023/07/28 00:27:50;;;;;;;;;1.33;1.33;;;;;20.48;75.40;100181.13;5127621;27;45373;-77
2023/07/28 00:30:15;;;;;;;;;2.33;1.33;;;;;20.48;75.19;100178.44;5120415;27;45385;-77
2023/07/28 00:32:41;;;;;;;;;0.50;0.50;;;;;20.45;75.51;100167.09;5131411;27;53620;-76
2023/07/28 00:35:06;;;;;;;;;1.33;1.33;;;;;20.45;75.53;100173.34;5141377;27;45447;-76
2023/07/28 00:37:32;;;;;;;;;2.00;2.00;;;;;20.36;75.53;100155.34;5140178;27;45418;-76
2023/07/28 00:39:57;;;;;;;;;2.00;1.33;;;;;20.43;75.63;100169.09;5140713;27;57060;-79
2023/07/28 00:42:22;;;;;;;;;1.67;1.67;;;;;20.45;75.86;100172.50;5139333;27;45476;-75
2023/07/28 00:44:48;;;;;;;;;1.25;1.25;;;;;20.45;75.73;100167.09;5140897;27;47975;-77
2023/07/28 00:47:13;;;;;;;;;1.00;1.00;;;;;20.47;75.32;100179.44;5139591;27;45311;-76
2023/07/28 00:49:40;;;;;;;;;1.00;1.00;;;;;20.44;75.76;100170.78;5122056;27;46976;-75
2023/07/28 00:52:07;;;;;;;;;3.67;3.67;;;;;20.47;75.69;100178.59;5132172;27;45353;-76
2023/07/28 00:54:33;;;;;;;;;0.67;0.67;;;;;20.45;75.39;100176.06;5120121;27;45253;-73
2023/07/28 00:56:59;;;;;;;;;0.67;0.67;;;;;20.47;75.70;100174.03;5120062;27;45506;-75
2023/07/28 00:59:24;;;;;;;;;1.67;1.67;;;;;20.39;75.87;100156.88;5120125;27;46069;-74
2023/07/28 01:01:49;;;;;;;;;0.67;0.67;;;;;20.47;75.85;100170.50;5119856;27;45298;-76
2023/07/28 01:04:15;;;;;;;;;1.33;1.33;;;;;20.47;75.65;100181.28;5119487;27;55184;-76
2023/07/28 01:06:53;;;;;;;;;0.67;0.67;;;;;20.47;75.55;100184.00;5119286;27;45602;-75
2023/07/28 01:09:27;;;;;;;;;1.25;1.25;;;;;20.37;75.89;100175.97;5119763;27;45462;-75
2023/07/28 01:11:57;;;;;;;;;2.00;0.33;;;;;20.42;76.05;100176.34;5101396;27;45441;-75
2023/07/28 01:14:22;;;;;;;;;0.00;0.00;;;;;20.44;76.02;100181.59;5119933;27;45332;-75
2023/07/28 01:16:48;;;;;;;;;1.50;1.50;;;;;20.44;76.17;100176.19;5119189;27;45264;-76
2023/07/28 01:19:17;;;;;;;;;1.67;1.67;;;;;20.43;76.49;100179.91;5118301;27;45786;-77
2023/07/28 01:21:48;;;;;;;;;2.33;2.33;;;;;20.43;76.76;100175.34;5119516;27;45394;-77
2023/07/28 01:24:37;;;;;;;;;2.50;1.00;;;;;20.44;76.64;100181.59;5119758;27;45314;-76
2023/07/28 01:27:03;;;;;;;;;3.00;3.00;;;;;20.45;76.31;100184.16;5119273;27;45493;-76
2023/07/28 01:29:28;;;;;;;;;2.67;1.67;;;;;20.45;76.62;100184.16;5119541;27;46137;-76
2023/07/28 01:31:54;;;;;;;;;2.00;2.00;;;;;20.43;76.41;100178.03;5119605;27;45289;-74
2023/07/28 01:34:19;;;;;;;;;1.00;1.00;;;;;20.40;76.82;100180.19;5119177;27;45383;-77
2023/07/28 01:36:44;;;;;;;;;1.33;1.33;;;;;20.39;76.90;100182.03;5120890;27;45590;-75
2023/07/28 01:39:10;;;;;;;;;2.00;1.00;;;;;20.38;76.81;100174.94;5140040;27;50253;-76
2023/07/28 01:41:35;;;;;;;;;1.00;1.00;;;;;20.35;76.85;100169.03;5138647;27;57750;-76
2023/07/28 01:44:00;;;;;;;;;2.00;2.00;;;;;20.35;76.83;100167.16;5140503;27;45242;-75
2023/07/28 01:46:26;;;;;;;;;1.67;1.67;;;;;20.42;76.52;100173.66;5140365;27;45505;-74
2023/07/28 01:48:51;;;;;;;;;3.33;2.00;;;;;20.44;76.87;100170.78;5122882;27;46464;-76
2023/07/28 01:51:16;;;;;;;;;0.67;0.67;;;;;20.41;76.62;100166.53;5119399;27;45294;-76
2023/07/28 01:53:42;;;;;;;;;1.00;1.00;;;;;20.44;76.49;100163.53;5119400;27;45394;-76
2023/07/28 01:56:07;;;;;;;;;2.33;0.67;;;;;20.43;76.24;100158.28;5100904;27;45382;-76
2023/07/28 01:58:33;;;;;;;;;0.33;0.33;;;;;20.41;76.56;100155.72;5118268;27;45223;-77
2023/07/28 02:00:58;;;;;;;;;1.67;1.67;;;;;20.36;76.69;100152.66;5129248;27;45241;-76
2023/07/28 02:03:23;;;;;;;;;0.67;0.67;;;;;20.37;76.84;100154.34;5139847;27;45332;-77
2023/07/28 02:05:48;;;;;;;;;3.00;1.67;;;;;20.37;76.69;100156.22;5139952;27;45578;-76
2023/07/28 02:08:14;;;;;;;;;2.33;0.67;;;;;20.44;76.54;100160.81;5124681;27;46416;-76
2023/07/28 02:10:39;;;;;;;;;1.67;1.67;;;;;20.37;76.72;100148.09;5118910;27;45286;-75
2023/07/28 02:13:05;;;;;;;;;2.33;0.67;;;;;20.33;76.63;100153.84;5119030;27;45394;-76
2023/07/28 02:15:30;;;;;;;;;2.00;2.00;;;;;20.43;76.76;100164.53;5119297;27;45260;-76
2023/07/28 02:17:55;;;;;;;;;0.67;0.67;;;;;20.42;76.86;100162.84;5117753;27;45652;-77
2023/07/28 02:20:21;;;;;;;;;1.00;1.00;;;;;20.33;76.69;100153.00;5118261;27;45407;-77
2023/07/28 02:22:46;;;;;;;;;1.00;1.00;;;;;20.41;76.76;100155.72;5133594;27;59198;-77
2023/07/28 02:25:12;;;;;;;;;1.00;1.00;;;;;20.43;76.85;100159.13;5100327;27;45537;-77
2023/07/28 02:27:38;;;;;;;;;1.00;1.00;;;;;20.43;76.94;100156.44;5099480;27;47506;-78
2023/07/28 02:30:05;;;;;;;;;2.00;2.00;;;;;20.40;76.85;100154.03;5138079;27;45349;-77
2023/07/28 02:32:31;;;;;;;;;1.00;1.00;;;;;20.41;76.71;100158.41;5103982;27;45353;-76
2023/07/28 02:34:56;;;;;;;;;2.00;0.00;;;;;20.42;76.55;100154.75;5118760;27;45328;-78
2023/07/28 02:37:21;;;;;;;;;0.00;0.00;;;;;20.44;76.23;100155.41;5117668;27;45513;-75
2023/07/28 02:39:47;;;;;;;;;0.67;0.67;;;;;20.38;76.14;100142.53;5117894;27;57055;-77
2023/07/28 02:42:12;;;;;;;;;0.33;0.33;;;;;20.39;76.71;100144.22;5099912;27;45358;-74
2023/07/28 02:44:38;;;;;;;;;1.00;1.00;;;;;20.42;76.62;100152.03;5099941;27;45339;-75
2023/07/28 02:47:03;;;;;;;;;1.67;0.67;;;;;20.41;76.60;100153.00;5117451;27;46032;-75
2023/07/28 02:49:29;;;;;;;;;1.25;1.25;;;;;20.39;76.54;100151.50;5125284;27;45310;-75
2023/07/28 02:51:54;;;;;;;;;2.00;1.50;;;;;20.35;76.67;100142.03;5118225;27;45310;-75
2023/07/28 02:54:21;;;;;;;;;1.00;1.00;;;;;20.39;76.75;100149.63;5118312;27;45303;-75
2023/07/28 02:56:46;;;;;;;;;0.67;0.67;;;;;20.38;77.01;100156.03;5117992;27;45446;-76
2023/07/28 02:59:11;;;;;;;;;1.00;1.00;;;;;20.22;76.83;100124.41;5099065;27;45389;-76
2023/07/28 03:01:36;;;;;;;;;0.67;0.67;;;;;20.36;76.91;100149.13;5117770;27;48693;-76
2023/07/28 03:04:02;;;;;;;;;1.00;1.00;;;;;20.31;77.30;100149.56;5118474;27;45499;-79
2023/07/28 03:06:28;;;;;;;;;0.67;0.67;;;;;20.31;77.19;100150.44;5117785;27;45432;-78
2023/07/28 03:08:54;;;;;;;;;1.67;1.00;;;;;20.25;77.42;100139.41;5134403;27;45428;-77
2023/07/28 03:11:19;;;;;;;;;0.33;0.33;;;;;20.32;77.33;100156.69;5138798;27;45247;-75
2023/07/28 03:13:45;;;;;;;;;1.67;1.67;;;;;20.35;77.34;100160.94;5138766;27;45347;-74
2023/07/28 03:16:10;;;;;;;;;1.50;0.50;;;;;20.33;77.27;100153.84;5138121;27;59618;-76
2023/07/28 03:18:35;;;;;;;;;0.25;0.25;;;;;20.35;77.52;100158.22;5118711;27;47273;-76
2023/07/28 03:21:01;;;;;;;;;0.67;0.67;;;;;20.36;77.44;100155.34;5121670;27;45314;-76
2023/07/28 03:23:26;;;;;;;;;0.67;0.67;;;;;20.35;77.48;100161.78;5138755;27;45538;-77
2023/07/28 03:25:52;;;;;;;;;0.33;0.00;;;;;20.27;77.88;100150.91;5115813;27;46520;-77
2023/07/28 03:28:17;;;;;;;;;0.50;0.50;;;;;20.30;77.51;100164.09;5132427;27;45840;-76
2023/07/28 03:30:42;;;;;;;;;0.25;0.25;;;;;20.29;77.85;100163.25;5137747;27;59819;-78
2023/07/28 03:33:08;;;;;;;;;2.00;2.00;;;;;20.27;78.13;100159.00;5120004;27;45378;-75
2023/07/28 03:35:33;;;;;;;;;0.00;0.00;;;;;20.32;77.75;100160.25;5119805;27;50169;-75
2023/07/28 03:37:58;;;;;;;;;1.33;1.33;;;;;20.28;78.17;100160.69;5137213;27;45336;-76
2023/07/28 03:40:24;;;;;;;;;0.67;0.67;;;;;20.25;77.92;100150.22;5137725;27;45243;-77
2023/07/28 03:42:50;;;;;;;;;0.67;0.67;;;;;20.25;78.54;100153.75;5120489;27;45338;-77
2023/07/28 03:45:15;;;;;;;;;0.67;0.67;;;;;20.21;78.33;100151.56;5117185;27;46114;-77
2023/07/28 03:47:41;;;;;;;;;2.00;1.00;;;;;20.22;78.53;100150.53;5117143;27;45586;-76
2023/07/28 03:50:06;;;;;;;;;0.33;0.33;;;;;20.23;78.46;100149.53;5117758;27;45334;-76
2023/07/28 03:52:32;;;;;;;;;0.33;0.33;;;;;20.20;78.46;100141.75;5117574;27;45352;-76
2023/07/28 03:54:57;;;;;;;;;1.00;1.00;;;;;20.25;78.19;100147.53;5098709;27;47985;-77
2023/07/28 03:57:22;;;;;;;;;1.00;1.00;;;;;20.23;78.58;100141.44;5116458;27;45291;-79
2023/07/28 03:59:47;;;;;;;;;0.67;0.67;;;;;20.21;78.89;100135.34;5117133;27;45392;-79
2023/07/28 04:02:13;;;;;;;;;1.67;0.67;;;;;20.25;78.73;100140.25;5117447;27;45573;-78
2023/07/28 04:04:38;;;;;;;;;1.67;0.67;;;;;20.21;79.61;100143.44;5117313;27;45414;-76
2023/07/28 04:07:04;;;;;;;;;0.33;0.33;;;;;20.16;80.47;100137.66;5119884;27;45408;-77
2023/07/28 04:09:29;;;;;;;;;1.00;1.00;;;;;20.16;80.35;100132.25;5137936;27;45373;-77
2023/07/28 04:11:54;;;;;;;;;0.00;0.00;;;;;20.10;80.81;100124.81;5119004;27;45487;-76
2023/07/28 04:14:20;;;;;;;;;1.00;1.00;;;;;20.17;81.30;100136.66;5137525;27;45455;-74
2023/07/28 04:16:45;;;;;;;;;0.00;0.00;;;;;20.12;81.84;100133.59;5136706;27;47171;-76
2023/07/28 04:19:10;;;;;;;;;2.00;1.00;;;;;20.10;82.44;100135.63;5121562;27;45441;-77
2023/07/28 04:21:39;;;;;;;;;1.00;1.00;;;;;20.07;82.70;100136.78;5117067;27;45498;-75
2023/07/28 04:24:06;;;;;;;;;0.67;0.67;;;;;20.03;83.03;100147.03;5116715;27;46348;-76
2023/07/28 04:26:32;;;;;;;;;1.00;0.00;;;;;20.03;82.85;100136.22;5098334;27;45334;-74
2023/07/28 04:28:57;;;;;;;;;0.00;0.00;;;;;19.96;83.14;100140.56;5127572;27;45273;-75
2023/07/28 04:31:22;;;;;;;;;1.00;1.00;;;;;19.96;83.79;100139.72;5098632;27;45650;-76
2023/07/28 04:33:48;;;;;;;;;0.00;0.00;;;;;19.95;83.78;100151.53;5116167;27;59633;-75
2023/07/28 04:36:13;;;;;;;;;1.00;0.00;;;;;19.93;83.63;100140.91;5116645;27;45378;-76
2023/07/28 04:38:38;;;;;;;;;0.50;0.50;;;;;19.90;84.48;100145.75;5132176;27;45457;-75
2023/07/28 04:41:03;;;;;;;;;2.00;0.00;;;;;19.93;84.38;100149.00;5116746;27;45396;-76
2023/07/28 04:43:29;;;;;;;;;0.00;0.00;;;;;19.91;84.38;100148.28;5116621;27;45325;-77
2023/07/28 04:45:54;;;;;;;;;3.00;1.00;;;;;19.95;84.93;100154.22;5116485;27;45250;-75
2023/07/28 04:48:19;;;;;;;;;0.00;0.00;;;;;19.87;84.78;100149.59;5111665;27;45461;-76
2023/07/28 04:50:45;;;;;;;;;0.00;0.00;;;;;19.80;85.25;100137.75;5135947;27;56384;-77
2023/07/28 04:53:11;;;;;;;;;0.00;0.00;;;;;19.83;85.97;100142.84;5139717;27;46415;-77
2023/07/28 04:55:36;;;;;;;;;1.00;1.00;;;;;19.85;85.37;100148.91;5122405;27;45469;-76
2023/07/28 04:58:01;;;;;;;;;1.00;1.00;;;;;19.84;85.71;100151.78;5130145;27;45748;-77
2023/07/28 05:00:27;;;;;;;;;1.00;1.00;;;;;19.91;85.57;100169.03;5123453;27;45572;-75
2023/07/28 05:02:52;;;;;;;;;0.67;0.67;;;;;19.87;85.41;100156.84;5119678;27;46176;-77
2023/07/28 05:05:17;;;;;;;;;1.00;1.00;;;;;19.88;85.81;100148.59;5120061;27;45341;-76
2023/07/28 05:07:43;;;;;;;;;0.00;0.00;;;;;19.87;85.95;100155.00;5119201;27;45294;-75
2023/07/28 05:10:09;;;;;;;;;3.00;0.25;;;;;19.96;85.58;100159.47;5119755;27;45202;-75
2023/07/28 05:12:34;;;;;;;;;0.25;0.25;;;;;19.94;85.18;100153.38;5101073;27;47026;-74
2023/07/28 05:14:59;;;;;;;;;0.67;0.67;;;;;19.99;85.56;100163.69;5123172;27;45318;-76
2023/07/28 05:17:25;;;;;;;;;1.00;0.67;;;;;19.98;85.34;100154.75;5134069;27;45521;-78
2023/07/28 05:19:50;;;;;;;;;0.00;0.00;;;;;19.98;84.78;100160.16;5119564;27;45175;-77
2023/07/28 05:22:16;;;;;;;;;0.00;0.00;;;;;19.97;84.93;100153.06;5119436;27;45403;-78
2023/07/28 05:24:41;;;;;;;;;0.00;0.00;;;;;20.02;85.46;100155.28;5119710;27;45365;-79
2023/07/28 05:27:07;;;;;;;;;0.00;0.00;;;;;20.00;85.13;100158.16;5119153;27;45358;-76
2023/07/28 05:29:32;;;;;;;;;0.00;0.00;;;;;20.01;85.46;100157.13;5119663;27;45426;-78
2023/07/28 05:32:00;;;;;;;;;0.00;0.00;;;;;19.99;85.19;100156.44;5118401;27;63661;-79
2023/07/28 05:34:26;;;;;;;;;0.00;0.00;;;;;20.01;85.09;100159.84;5119311;27;45362;-78
2023/07/28 05:36:51;;;;;;;;;0.33;0.00;;;;;19.96;85.12;100150.53;5124580;27;45326;-78
2023/07/28 05:39:17;;;;;;;;;0.00;0.00;;;;;20.04;85.46;100158.66;5119357;27;45230;-77
2023/07/28 05:41:42;;;;;;;;;0.00;0.00;;;;;20.00;84.96;100160.84;5100823;27;46889;-75
2023/07/28 05:44:07;;;;;;;;;0.25;0.00;;;;;20.00;85.09;100163.53;5119166;27;45396;-75
2023/07/28 05:46:33;;;;;;;;;0.25;0.00;;;;;20.01;85.14;100159.84;5125780;27;45671;-75
2023/07/28 05:48:59;;;;;;;;;0.00;0.00;;;;;19.98;84.95;100160.16;5100910;27;45667;-77
2023/07/28 05:51:24;;;;;;;;;0.00;0.00;;;;;20.09;84.95;100163.63;5100501;27;45357;-76
2023/07/28 05:53:50;;;;;;;;;0.00;0.00;;;;;20.11;84.72;100158.91;5119110;27;45418;-76
2023/07/28 05:56:15;;;;;;;;;0.00;0.00;;;;;20.15;84.59;100152.16;5118621;27;45289;-76
2023/07/28 05:58:41;;;;;;;;;0.00;0.00;;;;;20.12;84.14;100150.63;5106459;27;45338;-77
2023/07/28 06:01:06;;;;;;;;;1.00;0.00;;;;;20.09;83.96;100139.31;5138322;27;46148;-74
2023/07/28 06:03:31;;;;;;;;;0.00;0.00;;;;;20.21;84.06;100159.66;5127032;27;45425;-78
2023/07/28 06:05:57;;;;;;;;;1.00;1.00;;;;;20.19;83.99;100161.66;5139219;27;45378;-76
2023/07/28 06:08:22;;;;;;;;;1.33;0.33;;;;;20.22;84.35;100161.34;5123045;27;45436;-76
2023/07/28 06:10:48;;;;;;;;;1.00;0.00;;;;;20.30;83.96;100169.47;5117957;27;45457;-80
2023/07/28 06:13:13;;;;;;;;;0.00;0.00;;;;;20.32;83.52;100164.78;5109566;27;45432;-77
2023/07/28 06:15:39;;;;;;;;;0.00;0.00;;;;;20.36;83.79;100165.31;5139639;27;45402;-80
2023/07/28 06:18:04;;;;;;;;;0.00;0.00;;;;;20.37;83.81;100165.16;5121099;27;45428;-77
2023/07/28 06:20:31;;;;;;;;;1.00;1.00;;;;;20.39;83.37;100165.00;5124561;27;45362;-75
2023/07/28 06:22:56;;;;;;;;;0.33;0.33;;;;;20.39;83.11;100171.25;5133242;27;45720;-75
2023/07/28 06:25:22;;;;;;;;;0.50;0.50;;;;;20.42;83.06;100167.41;5115611;27;45903;-77
2023/07/28 06:27:47;;;;;;;;;1.00;0.00;;;;;20.50;82.91;100173.72;5128855;27;45278;-77
2023/07/28 06:30:12;;;;;;;;;0.00;0.00;;;;;20.55;82.97;100178.63;5121854;27;57381;-75
2023/07/28 06:32:38;;;;;;;;;0.67;0.67;;;;;20.53;82.86;100176.09;5119261;27;45402;-77
2023/07/28 06:35:05;;;;;;;;;0.00;0.00;;;;;20.51;82.71;100175.41;5138771;27;45181;-79
2023/07/28 06:37:30;;;;;;;;;1.00;1.00;;;;;20.55;82.58;100181.31;5122330;27;45484;-78
2023/07/28 06:39:55;;;;;;;;;0.00;0.00;;;;;20.54;82.48;100175.06;5138720;27;46467;-78
2023/07/28 06:42:23;;;;;;;;;0.67;0.67;;;;;20.65;82.31;100189.31;5130364;27;45341;-78
2023/07/28 06:44:50;;;;;;;;;0.67;0.00;;;;;20.65;82.29;100186.63;5120867;27;45247;-79
2023/07/28 06:47:16;;;;;;;;;1.67;0.33;;;;;20.69;82.03;100187.97;5139226;27;45440;-77
2023/07/28 06:49:41;;;;;;;;;0.50;0.50;;;;;20.69;82.43;100198.78;5113884;27;47801;-77
2023/07/28 06:52:07;;;;;;;;;1.00;1.00;;;;;20.64;82.04;100187.63;5126336;27;45447;-80
2023/07/28 06:54:32;;;;;;;;;1.00;1.00;;;;;20.57;82.22;100182.88;5130200;27;45451;-78
2023/07/28 06:56:58;;;;;;;;;0.00;0.00;;;;;20.61;82.09;100195.06;5118359;27;45342;-79
2023/07/28 06:59:23;;;;;;;;;1.00;1.00;;;;;20.52;82.06;100168.97;5138463;27;45502;-79
2023/07/28 07:01:49;;;;;;;;;0.67;0.67;;;;;20.74;81.75;100199.19;5103545;27;45652;-77
2023/07/28 07:04:15;;;;;;;;;0.75;0.75;;;;;20.73;81.82;100202.88;5117445;27;45285;-79
2023/07/28 07:06:40;;;;;;;;;2.00;0.25;;;;;20.77;81.99;100215.91;5131604;27;45336;-77
2023/07/28 07:09:06;;;;;;;;;1.00;1.00;;;;;20.78;81.78;100212.19;5134070;27;45914;-78
2023/07/28 07:11:31;;;;;;;;;1.33;1.33;;;;;20.66;81.76;100193.72;5137745;27;45409;-79
2023/07/28 07:13:56;;;;;;;;;2.00;1.00;;;;;20.69;82.10;100196.09;5117894;27;45503;-79
2023/07/28 07:16:23;;;;;;;;;1.33;1.33;;;;;20.75;83.05;100217.09;5119743;27;45498;-76
2023/07/28 07:18:48;;;;;;;;;1.00;1.00;;;;;20.74;82.84;100215.38;5121173;27;46708;-76
2023/07/28 07:21:14;;;;;;;;;1.00;1.00;;;;;20.73;82.94;100216.41;5120090;27;45515;-79
2023/07/28 07:23:39;;;;;;;;;0.33;0.00;;;;;20.57;84.13;100192.81;5115390;27;45594;-78
2023/07/28 07:26:04;;;;;;;;;2.75;1.00;;;;;20.71;84.27;100221.13;5138221;27;45334;-77
2023/07/28 07:28:30;;;;;;;;;2.00;2.00;;;;;20.25;84.58;100161.03;5125619;27;45829;-77
2023/07/28 07:30:55;;;;;;;;;2.00;2.00;;;;;20.46;85.36;100218.25;5128951;27;45568;-78
2023/07/28 07:33:21;;;;;;;;;2.75;1.25;;;;;20.51;86.26;100218.63;5130091;27;45467;-76
2023/07/28 07:35:46;;;;;;;;;1.00;1.00;;;;;20.48;86.62;100231.59;5129476;27;45468;-78
2023/07/28 07:38:12;;;;;;;;;2.00;2.00;;;;;20.41;88.02;100222.41;5117938;27;46851;-75
2023/07/28 07:40:37;;;;;;;;;1.50;0.75;;;;;20.47;88.85;100246.97;5131952;27;45514;-76
2023/07/28 07:43:03;;;;;;;;;2.00;1.67;;;;;20.25;88.88;100215.88;5133810;27;45379;-77
2023/07/28 07:45:30;;;;;;;;;2.00;1.00;;;;;20.28;89.95;100237.16;5135749;27;45524;-77
2023/07/28 07:47:55;;;;;;;;;1.00;1.00;;;;;20.14;91.93;100229.63;5136271;27;45446;-77
2023/07/28 07:50:21;;;;;;;;;0.00;0.00;;;;;20.10;92.39;100233.66;5131208;27;45279;-77
2023/07/28 07:52:47;;;;;;;;;1.33;1.00;;;;;20.09;92.96;100241.91;5108956;27;45393;-77
2023/07/28 07:55:12;;;;;;;;;2.00;1.33;;;;;20.12;92.46;100241.59;5124596;27;45986;-77
2023/07/28 07:57:37;;;;;;;;;0.67;0.67;;;;;20.09;92.39;100231.09;5132152;27;46107;-75
2023/07/28 08:00:03;;;;;;;;;1.67;1.00;;;;;20.21;92.72;100240.66;5125262;27;45642;-77
2023/07/28 08:02:29;;;;;;;;;1.67;1.67;;;;;20.15;92.00;100230.47;5136576;27;45243;-79
2023/07/28 08:04:54;;;;;;;;;0.00;0.00;;;;;20.21;92.22;100229.84;5137000;27;45431;-77
2023/07/28 08:07:19;;;;;;;;;1.00;1.00;;;;;20.39;91.59;100241.47;5130484;27;45545;-76
2023/07/28 08:09:45;;;;;;;;;0.67;0.67;;;;;20.33;91.93;100234.84;5135097;27;45451;-76
2023/07/28 08:12:12;;;;;;;;;3.00;3.00;;;;;20.43;91.72;100240.16;5122666;27;45369;-79
2023/07/28 08:14:37;;;;;;;;;0.00;0.00;;;;;20.37;90.95;100240.78;5131029;27;45462;-78
2023/07/28 08:17:03;;;;;;;;;0.67;0.67;;;;;20.43;91.39;100240.16;5121370;27;46083;-76
2023/07/28 08:19:29;;;;;;;;;0.33;0.33;;;;;20.56;91.12;100253.25;5125846;27;45368;-78
2023/07/28 08:21:54;;;;;;;;;0.00;0.00;;;;;20.40;90.31;100197.25;5137418;27;45358;-76
2023/07/28 08:24:20;;;;;;;;;1.33;1.33;;;;;20.65;89.86;100237.97;5123394;27;45908;-75
2023/07/28 08:26:45;;;;;;;;;0.00;0.00;;;;;20.75;89.24;100247.66;5134438;27;46397;-77
2023/07/28 08:29:11;;;;;;;;;3.33;0.33;;;;;20.84;88.79;100246.69;5114603;27;45377;-77
2023/07/28 08:31:36;;;;;;;;;0.50;0.50;;;;;20.92;88.25;100254.00;5140615;27;45397;-78
2023/07/28 08:34:02;;;;;;;;;0.50;0.50;;;;;20.92;87.80;100248.59;5140151;27;45502;-78
2023/07/28 08:36:28;;;;;;;;;0.67;0.67;;;;;20.93;88.21;100247.56;5129229;27;45601;-79
2023/07/28 08:38:53;;;;;;;;;2.50;1.00;;;;;21.02;87.68;100257.44;5139762;27;45408;-79
2023/07/28 08:41:19;;;;;;;;;1.50;1.50;;;;;21.05;87.63;100254.41;5128812;27;45385;-76
2023/07/28 08:43:45;;;;;;;;;0.00;0.00;;;;;20.90;87.01;100232.53;5113249;27;45436;-78
2023/07/28 08:46:10;;;;;;;;;1.00;1.00;;;;;20.89;87.37;100241.66;5139802;27;45791;-79
2023/07/28 08:48:36;;;;;;;;;0.50;0.50;;;;;20.97;86.87;100251.66;5118792;27;45446;-78
2023/07/28 08:51:02;;;;;;;;;2.00;0.67;;;;;21.00;86.40;100240.53;5141143;27;45349;-80
2023/07/28 08:53:27;;;;;;;;;1.00;1.00;;;;;21.29;85.87;100264.50;5121677;27;45655;-79
2023/07/28 08:55:53;;;;;;;;;0.75;0.75;;;;;21.33;85.58;100254.19;5113481;27;48014;-78
2023/07/28 08:58:20;;;;;;;;;1.75;0.75;;;;;21.48;84.79;100263.38;5126845;27;45426;-77
2023/07/28 09:00:49;;;;;;;;;1.75;0.00;;;;;21.60;83.64;100267.47;5139807;27;45490;-77
2023/07/28 09:03:16;;;;;;;;;1.00;0.50;;;;;21.67;83.91;100273.94;5127873;27;45482;-78
2023/07/28 09:05:42;;;;;;;;;0.50;0.50;;;;;21.77;83.90;100258.41;5120923;27;47511;-77
2023/07/28 09:08:09;;;;;;;;;1.00;0.75;;;;;21.89;82.57;100260.81;5138996;27;45494;-75
2023/07/28 09:10:45;;;;;;;;;1.00;1.00;;;;;21.93;82.66;100267.56;5140414;27;45276;-77
2023/07/28 09:13:13;;;;;;;;;1.00;1.00;;;;;21.89;82.38;100269.78;5142691;27;45641;-77
2023/07/28 09:15:39;;;;;;;;;1.00;1.00;;;;;21.77;82.46;100258.41;5116718;27;45554;-76
2023/07/28 09:18:12;;;;;;;;;0.00;0.00;;;;;21.82;81.99;100260.59;5133569;27;45594;-80
2023/07/28 09:20:40;;;;;;;;;0.75;0.75;;;;;21.90;82.04;100276.88;5117674;27;45944;-79
2023/07/28 09:23:07;;;;;;;;;0.50;0.50;;;;;21.90;81.51;100276.03;5117926;27;45355;-79
2023/07/28 09:25:34;;;;;;;;;0.25;0.25;;;;;21.76;81.69;100262.13;5129447;27;45947;-78
2023/07/28 09:28:00;;;;;;;;;0.50;0.50;;;;;21.84;81.98;100274.81;5131419;27;45806;-77
2023/07/28 09:30:26;;;;;;;;;0.00;0.00;;;;;21.91;81.76;100270.44;5139773;27;45782;-77
2023/07/28 09:32:53;;;;;;;;;2.00;0.75;;;;;21.73;81.73;100248.91;5135720;27;45451;-77
2023/07/28 09:35:21;;;;;;;;;1.00;1.00;;;;;21.85;81.68;100272.97;5115068;27;48148;-78
2023/07/28 09:37:50;;;;;;;;;1.25;1.00;;;;;21.77;82.17;100277.34;5137361;27;45383;-76
2023/07/28 09:40:21;;;;;;;;;1.00;1.00;;;;;21.78;82.49;100272.78;5135778;27;45480;-75
2023/07/28 09:42:54;;;;;;;;;1.00;1.00;;;;;21.92;83.09;100276.72;5124948;27;46051;-77
2023/07/28 09:45:21;;;;;;;;;1.00;1.00;;;;;22.02;82.44;100262.00;5118300;27;47386;-76
2023/07/28 09:47:51;;;;;;;;;1.25;1.00;;;;;22.17;81.10;100243.25;5137859;27;45499;-81
2023/07/28 09:50:18;;;;;;;;;1.00;1.00;;;;;22.68;80.01;100268.28;5135820;27;45529;-77
2023/07/28 09:52:53;;;;;;;;;2.50;1.00;;;;;22.87;79.38;100262.50;5130859;27;45804;-78
2023/07/28 09:55:20;;;;;;;;;1.25;0.75;;;;;22.87;79.04;100246.22;5133787;27;46485;-78
2023/07/28 09:57:54;;;;;;;;;1.00;1.00;;;;;22.92;78.91;100256.56;5132585;27;45478;-77
2023/07/28 10:00:22;;;;;;;;;1.00;1.00;;;;;22.87;78.29;100257.06;5133566;27;45477;-77
2023/07/28 10:02:47;;;;;;;;;1.00;1.00;;;;;22.87;78.27;100248.09;5118207;27;45369;-77
2023/07/28 10:05:15;;;;;;;;;3.00;2.00;;;;;22.81;77.92;100251.47;5117274;27;47339;-79
2023/07/28 10:07:44;;;;;;;;;1.25;1.25;;;;;22.70;79.00;100243.72;5130935;27;45448;-77
2023/07/28 10:10:12;;;;;;;;;1.50;1.50;;;;;22.69;78.73;100261.84;5120250;27;45431;-74
2023/07/28 10:12:48;;;;;;;;;1.00;1.00;;;;;22.58;78.55;100259.47;5133585;27;45627;-78
2023/07/28 10:15:15;;;;;;;;;1.00;1.00;;;;;22.61;79.04;100256.41;5116354;27;48183;-79
2023/07/28 10:17:44;;;;;;;;;1.00;1.00;;;;;22.79;78.47;100243.53;5136751;27;45643;-78
2023/07/28 10:20:35;;;;;;;;;1.00;1.00;;;;;23.08;77.04;100253.81;5122752;27;45418;-80
2023/07/28 10:23:11;;;;;;;;;2.00;2.00;;;;;23.28;75.18;100259.66;5122918;27;45814;-78
2023/07/28 10:25:38;;;;;;;;;1.75;0.00;;;;;23.33;75.23;100238.28;5122349;27;46865;-79
2023/07/28 10:28:05;;;;;;;;;1.00;1.00;;;;;23.75;74.28;100242.47;5118421;27;45515;-78
2023/07/28 10:30:50;;;;;;;;;5.25;2.25;;;;;24.03;73.07;100238.19;5137084;27;45770;-78
2023/07/28 10:33:30;;;;;;;;;1.25;0.75;;;;;24.15;71.66;100241.31;5125328;27;45407;-76
2023/07/28 10:35:55;;;;;;;;;1.00;1.00;;;;;24.07;71.47;100216.94;5134581;27;46562;-77
2023/07/28 10:38:32;;;;;;;;;3.00;1.50;;;;;24.36;70.72;100233.38;5136166;27;45430;-79
2023/07/28 10:41:26;;;;;;;;;1.40;1.00;;;;;24.37;70.22;100239.66;5118036;27;45530;-77
2023/07/28 10:43:52;;;;;;;;;1.00;0.50;;;;;24.41;70.17;100235.53;5106247;27;45371;-76
2023/07/28 10:46:21;;;;;;;;;0.75;0.75;;;;;24.29;70.83;100226.09;5117617;27;46009;-80
2023/07/28 10:48:48;;;;;;;;;0.00;0.00;;;;;24.27;71.40;100229.00;5135143;27;45882;-79
2023/07/28 10:51:24;;;;;;;;;1.00;1.00;;;;;24.48;70.93;100224.75;5136516;27;45405;-80
2023/07/28 10:54:00;;;;;;;;;1.50;1.50;;;;;24.38;69.98;100198.69;5130351;27;45876;-78
2023/07/28 10:56:26;;;;;;;;;0.25;0.25;;;;;24.34;70.58;100218.25;5129946;27;48644;-78
2023/07/28 10:59:02;;;;;;;;;3.00;2.00;;;;;24.30;70.87;100223.22;5100461;27;45575;-78
2023/07/28 11:01:38;;;;;;;;;2.00;2.00;;;;;24.06;71.15;100196.22;5128120;27;45535;-78
2023/07/28 11:04:08;;;;;;;;;1.00;1.00;;;;;24.19;70.91;100229.06;5105475;27;45523;-80
2023/07/28 11:06:34;;;;;;;;;1.00;1.00;;;;;23.72;71.73;100193.97;5136781;27;45421;-77
2023/07/28 11:08:59;;;;;;;;;2.00;2.00;;;;;23.94;72.22;100220.25;5132231;27;45786;-78
2023/07/28 11:11:25;;;;;;;;;1.00;1.00;;;;;24.02;72.14;100224.78;5136433;27;45888;-76
2023/07/28 11:13:52;;;;;;;;;1.25;1.25;;;;;23.99;71.36;100226.00;5136542;27;45714;-77
2023/07/28 11:16:18;;;;;;;;;0.50;0.50;;;;;23.76;71.93;100208.88;5134511;27;45392;-77
2023/07/28 11:18:43;;;;;;;;;2.75;2.75;;;;;23.58;73.98;100211.88;5135953;27;45442;-77
2023/07/28 11:21:08;;;;;;;;;1.50;1.50;;;;;23.59;74.82;100207.28;5136223;27;45447;-76